Gratiot, Wisconsin
Current Conditions -  °F | °C
As of 11:35 PM on Saturday 25 Oct 2014 (Local Time) from KEFT Reporting Station
Clear Clear  
Wind Chill: 50°   Ceiling: Unl
Heat Index: 50°   Visibility: 10mi
Dew Point: 30°   Wind: 10mph
Humidity: 47%   Direction: 290°WNW
Pressure: 30"   Gusts: NA
Location:  42.58°N, 90.02°W
Report Text: KEFT 260435Z AUTO 29009KT 10SM CLR 10/M01 A3000 RMK AO2
Loading
Personal Weather Stations






























Interactive Weather Map New forecast layout! Learn more

10-Day Weather Forecast

Advertisements
Track Severe Weather on mobile